createdAt,value
2023-04-04T00:00:21.557Z,1.50
2023-04-04T00:02:49.848Z,1.52
2023-04-04T00:05:16.817Z,1.98
2023-04-04T00:07:49.031Z,1.60
2023-04-04T00:10:16.529Z,1.55
2023-04-04T00:12:44.111Z,1.70
2023-04-04T00:15:11.637Z,2.03
2023-04-04T00:17:38.672Z,1.48
2023-04-04T00:20:06.525Z,1.83
2023-04-04T00:22:33.312Z,1.67
2023-04-04T00:25:00.209Z,1.70
2023-04-04T00:27:27.061Z,2.20
2023-04-04T00:29:53.901Z,1.77
2023-04-04T00:32:21.156Z,1.80
2023-04-04T00:34:53.316Z,2.10
2023-04-04T00:37:21.512Z,1.70
2023-04-04T00:39:49.423Z,1.90
2023-04-04T00:42:16.331Z,2.05
2023-04-04T00:44:43.212Z,1.77
2023-04-04T00:47:10.133Z,2.08
2023-04-04T00:49:37.840Z,1.67
2023-04-04T00:52:07.369Z,2.10
2023-04-04T00:54:35.014Z,2.08
2023-04-04T00:57:02.564Z,1.92
2023-04-04T00:59:29.524Z,2.00
2023-04-04T01:01:56.709Z,1.42
2023-04-04T01:04:23.683Z,2.00
2023-04-04T01:06:51.033Z,1.75
2023-04-04T01:09:18.510Z,2.38
2023-04-04T01:11:45.679Z,2.55
2023-04-04T01:14:12.533Z,1.98
2023-04-04T01:16:41.242Z,2.58
2023-04-04T01:19:13.396Z,1.70
2023-04-04T01:21:41.352Z,1.70
2023-04-04T01:24:10.163Z,1.92
2023-04-04T01:26:37.516Z,1.65
2023-04-04T01:29:04.606Z,1.70
2023-04-04T01:31:43.515Z,2.15
2023-04-04T01:34:39.185Z,1.67
2023-04-04T01:37:21.329Z,1.95
2023-04-04T01:39:48.182Z,2.08
2023-04-04T01:42:16.951Z,1.98
2023-04-04T01:44:44.501Z,2.08
2023-04-04T01:47:13.217Z,2.05
2023-04-04T01:49:40.829Z,1.85
2023-04-04T01:52:07.705Z,1.75
2023-04-04T01:54:36.066Z,1.83
2023-04-04T01:57:03.047Z,1.92
2023-04-04T01:59:29.985Z,2.13
2023-04-04T02:01:57.774Z,2.03
2023-04-04T02:04:24.754Z,1.98
2023-04-04T02:06:52.790Z,1.98
2023-04-04T02:09:19.614Z,1.65
2023-04-04T02:11:46.427Z,2.30
2023-04-04T02:14:13.192Z,1.95
2023-04-04T02:16:40.022Z,1.80
2023-04-04T02:19:06.970Z,2.25
2023-04-04T02:21:33.784Z,2.03
2023-04-04T02:24:00.683Z,2.10
2023-04-04T02:26:27.539Z,1.92
2023-04-04T02:28:54.418Z,2.30
2023-04-04T02:31:21.865Z,2.00
2023-04-04T02:33:48.700Z,2.13
2023-04-04T02:36:15.528Z,2.20
2023-04-04T02:38:42.668Z,2.10
2023-04-04T02:41:09.496Z,2.05
2023-04-04T02:43:36.351Z,2.20
2023-04-04T02:46:14.300Z,2.05
2023-04-04T02:48:47.612Z,3.20
2023-04-04T02:51:14.463Z,4.00
2023-04-04T02:53:41.390Z,3.45
2023-04-04T02:56:08.366Z,4.25
2023-04-04T02:58:35.627Z,4.50
2023-04-04T03:01:02.599Z,4.72
2023-04-04T03:03:29.675Z,4.53
2023-04-04T03:05:56.720Z,4.40
2023-04-04T03:08:23.588Z,4.18
2023-04-04T03:10:50.446Z,4.55
2023-04-04T03:13:17.216Z,4.25
2023-04-04T03:15:47.282Z,4.80
2023-04-04T03:18:14.364Z,4.65
2023-04-04T03:20:41.465Z,4.90
2023-04-04T03:23:08.505Z,5.72
2023-04-04T03:25:35.644Z,5.22
2023-04-04T03:28:12.637Z,6.15
2023-04-04T03:30:39.925Z,5.78
2023-04-04T03:33:10.139Z,5.15
2023-04-04T03:35:40.678Z,4.18
2023-04-04T03:38:11.065Z,4.05
2023-04-04T03:40:38.000Z,6.25
2023-04-04T03:43:07.751Z,8.15
2023-04-04T03:45:35.901Z,9.50
2023-04-04T03:48:03.038Z,13.35
2023-04-04T03:50:30.569Z,12.52
2023-04-04T03:52:58.585Z,9.25
2023-04-04T03:55:26.392Z,8.73
2023-04-04T03:57:53.448Z,7.38
2023-04-04T04:00:20.704Z,6.55
2023-04-04T04:02:47.639Z,5.63
2023-04-04T04:05:14.652Z,5.38
2023-04-04T04:07:44.523Z,6.05
2023-04-04T04:10:14.155Z,5.70
2023-04-04T04:12:41.647Z,5.10
2023-04-04T04:15:09.020Z,5.15
2023-04-04T04:17:40.385Z,4.45
2023-04-04T04:20:08.913Z,4.03
2023-04-04T04:22:36.224Z,4.05
2023-04-04T04:25:03.127Z,3.63
2023-04-04T04:27:30.980Z,3.47
2023-04-04T04:29:57.821Z,3.28
2023-04-04T04:32:26.676Z,2.60
2023-04-04T04:34:53.610Z,2.95
2023-04-04T04:37:20.453Z,2.80
2023-04-04T04:39:47.260Z,3.72
2023-04-04T04:42:14.044Z,3.35
2023-04-04T04:44:40.825Z,3.03
2023-04-04T04:47:07.613Z,2.88
2023-04-04T04:49:34.598Z,2.90
2023-04-04T04:52:02.487Z,3.28
2023-04-04T04:54:29.418Z,2.47
2023-04-04T04:56:56.319Z,2.90
2023-04-04T04:59:23.233Z,2.67
2023-04-04T05:01:50.624Z,2.90
2023-04-04T05:04:17.765Z,2.63
2023-04-04T05:06:44.618Z,2.75
2023-04-04T05:09:11.442Z,2.50
2023-04-04T05:11:38.387Z,2.85
2023-04-04T05:14:06.351Z,3.13
2023-04-04T05:16:33.597Z,3.45
2023-04-04T05:19:00.526Z,2.90
2023-04-04T05:21:28.017Z,2.65
2023-04-04T05:23:55.131Z,3.00
2023-04-04T05:26:22.007Z,2.85
2023-04-04T05:28:48.990Z,3.45
2023-04-04T05:31:15.793Z,3.65
2023-04-04T05:33:42.614Z,4.15
2023-04-04T05:36:09.603Z,3.97
2023-04-04T05:38:37.231Z,3.33
2023-04-04T05:41:04.133Z,3.03
2023-04-04T05:43:31.221Z,3.22
2023-04-04T05:45:58.094Z,3.13
2023-04-04T05:48:24.939Z,3.42
2023-04-04T05:50:51.868Z,2.83
2023-04-04T05:53:18.946Z,2.90
2023-04-04T05:55:45.833Z,2.42
2023-04-04T05:58:13.660Z,2.38
2023-04-04T06:00:40.820Z,3.10
2023-04-04T06:03:07.909Z,3.80
2023-04-04T06:05:35.385Z,3.60
2023-04-04T06:08:02.227Z,4.63
2023-04-04T06:10:29.069Z,3.60
2023-04-04T06:12:56.028Z,2.80
2023-04-04T06:15:22.907Z,2.33
2023-04-04T06:17:49.828Z,2.85
2023-04-04T06:20:16.689Z,2.78
2023-04-04T06:22:43.480Z,2.97
2023-04-04T06:25:10.889Z,2.40
2023-04-04T06:27:37.747Z,3.42
2023-04-04T06:30:05.025Z,6.22
2023-04-04T06:32:32.322Z,3.53
2023-04-04T06:34:59.230Z,2.88
2023-04-04T06:37:26.163Z,2.63
2023-04-04T06:39:53.745Z,3.97
2023-04-04T06:42:20.540Z,3.63
2023-04-04T06:44:47.597Z,2.83
2023-04-04T06:47:14.972Z,3.10
2023-04-04T06:49:41.735Z,2.58
2023-04-04T06:52:08.628Z,2.25
2023-04-04T06:54:35.933Z,2.30
2023-04-04T06:57:03.028Z,2.10
2023-04-04T06:59:29.966Z,2.03
2023-04-04T07:01:58.000Z,2.40
2023-04-04T07:04:26.042Z,2.35
2023-04-04T07:06:52.937Z,2.58
2023-04-04T07:09:28.496Z,2.20
2023-04-04T07:11:56.494Z,1.98
2023-04-04T07:14:25.460Z,1.98
2023-04-04T07:16:53.311Z,1.95
2023-04-04T07:19:20.461Z,1.92
2023-04-04T07:21:47.355Z,1.90
2023-04-04T07:24:14.153Z,2.67
2023-04-04T07:26:41.244Z,1.80
2023-04-04T07:29:08.223Z,2.50
2023-04-04T07:31:35.144Z,2.22
2023-04-04T07:34:02.143Z,2.00
2023-04-04T07:36:29.229Z,1.95
2023-04-04T07:38:56.164Z,1.90
2023-04-04T07:41:23.020Z,2.22
2023-04-04T07:43:50.235Z,2.42
2023-04-04T07:46:17.925Z,1.83
2023-04-04T07:48:44.756Z,1.50
2023-04-04T07:51:12.781Z,1.90
2023-04-04T07:53:39.592Z,1.58
2023-04-04T07:56:06.768Z,1.85
2023-04-04T07:58:34.780Z,1.77
2023-04-04T08:01:02.746Z,2.03
2023-04-04T08:03:30.044Z,1.65
2023-04-04T08:05:57.137Z,1.95
2023-04-04T08:08:23.990Z,1.80
2023-04-04T08:10:50.787Z,1.40
2023-04-04T08:13:17.657Z,1.23
2023-04-04T08:15:44.578Z,1.10
2023-04-04T08:18:11.561Z,1.63
2023-04-04T08:20:38.716Z,1.63
2023-04-04T08:23:05.757Z,1.60
2023-04-04T08:25:32.710Z,1.30
2023-04-04T08:27:59.775Z,1.15
2023-04-04T08:30:27.355Z,1.77
2023-04-04T08:32:54.259Z,1.58
2023-04-04T08:35:21.248Z,1.42
2023-04-04T08:37:48.526Z,0.90
2023-04-04T08:40:16.419Z,1.35
2023-04-04T08:42:46.180Z,1.52
2023-04-04T08:45:16.781Z,1.40
2023-04-04T08:47:44.570Z,1.80
2023-04-04T08:50:12.404Z,1.40
2023-04-04T08:52:40.628Z,1.42
2023-04-04T08:55:08.324Z,1.63
2023-04-04T08:57:36.060Z,1.30
2023-04-04T09:00:06.295Z,1.77
2023-04-04T09:03:06.603Z,1.15
2023-04-04T09:05:33.922Z,0.75
2023-04-04T09:08:01.512Z,1.02
2023-04-04T09:10:29.774Z,1.00
2023-04-04T09:13:05.155Z,1.00
2023-04-04T09:15:43.661Z,1.70
2023-04-04T09:18:10.442Z,1.48
2023-04-04T09:20:37.338Z,1.10
2023-04-04T09:23:21.422Z,1.23
2023-04-04T09:28:24.322Z,1.67
2023-04-04T09:30:52.469Z,1.10
2023-04-04T09:33:21.725Z,1.38
2023-04-04T09:36:13.146Z,1.10
2023-04-04T09:38:45.819Z,1.40
2023-04-04T09:41:16.811Z,1.40
2023-04-04T09:43:47.855Z,1.23
2023-04-04T09:46:15.905Z,1.52
2023-04-04T09:48:50.330Z,1.45
2023-04-04T09:51:17.188Z,1.30
2023-04-04T09:53:48.398Z,1.02
2023-04-04T09:56:15.664Z,0.98
2023-04-04T09:58:56.665Z,1.20
2023-04-04T10:01:30.492Z,1.38
2023-04-04T10:03:58.555Z,1.20
2023-04-04T10:06:26.988Z,1.23
2023-04-04T10:08:53.894Z,1.10
2023-04-04T10:11:35.089Z,1.60
2023-04-04T10:14:04.139Z,1.27
2023-04-04T10:16:38.563Z,0.90
2023-04-04T10:19:08.922Z,1.30
2023-04-04T10:21:36.642Z,1.30
2023-04-04T10:24:09.794Z,1.65
2023-04-04T10:26:37.217Z,1.00
2023-04-04T10:29:05.822Z,1.40
2023-04-04T10:31:35.146Z,1.30
2023-04-04T10:34:24.622Z,1.20
2023-04-04T10:37:13.574Z,1.48
2023-04-04T10:40:08.154Z,1.00
2023-04-04T10:42:40.308Z,1.15
2023-04-04T10:45:20.342Z,1.27
2023-04-04T10:47:49.202Z,1.05
2023-04-04T10:50:16.302Z,1.27
2023-04-04T10:52:44.690Z,1.30
2023-04-04T10:55:13.803Z,1.35
2023-04-04T10:57:47.659Z,1.13
2023-04-04T11:00:18.712Z,1.17
2023-04-04T11:03:02.037Z,1.30
2023-04-04T11:05:34.541Z,1.20
2023-04-04T11:08:09.816Z,0.90
2023-04-04T11:10:46.250Z,1.55
2023-04-04T11:13:18.910Z,0.85
2023-04-04T11:15:48.543Z,0.85
2023-04-04T11:18:30.631Z,1.20
2023-04-04T11:21:05.303Z,0.93
2023-04-04T11:23:54.182Z,1.20
2023-04-04T11:26:30.233Z,1.15
2023-04-04T11:28:58.351Z,1.45
2023-04-04T11:31:28.084Z,1.30
2023-04-04T11:33:57.830Z,1.52
2023-04-04T11:36:36.996Z,1.42
2023-04-04T11:39:08.314Z,1.20
2023-04-04T11:42:06.843Z,1.42
2023-04-04T11:44:40.215Z,1.20
2023-04-04T11:47:07.067Z,1.15
2023-04-04T11:49:39.675Z,1.27
2023-04-04T11:54:39.366Z,1.15
2023-04-04T11:57:07.529Z,1.52
2023-04-04T11:59:39.161Z,1.10
2023-04-04T12:02:06.198Z,1.10
2023-04-04T12:04:35.816Z,1.42
2023-04-04T12:07:07.587Z,1.38
2023-04-04T12:09:35.701Z,1.33
2023-04-04T12:12:03.525Z,1.30
2023-04-04T12:14:32.989Z,1.20
2023-04-04T12:17:00.184Z,1.17
2023-04-04T12:19:29.122Z,0.90
2023-04-04T12:21:57.764Z,1.25
2023-04-04T12:24:24.919Z,1.10
2023-04-04T12:26:52.914Z,1.92
2023-04-04T12:29:23.391Z,1.00
2023-04-04T12:31:51.713Z,1.50
2023-04-04T12:36:58.623Z,1.15
2023-04-04T12:39:29.447Z,1.10
2023-04-04T12:42:03.981Z,1.00
2023-04-04T12:44:36.205Z,0.90
2023-04-04T12:47:08.128Z,1.00
2023-04-04T12:49:43.135Z,1.45
2023-04-04T12:52:20.780Z,0.77
2023-04-04T12:54:50.957Z,1.02
2023-04-04T12:57:25.651Z,1.52
2023-04-04T12:59:55.292Z,1.20
2023-04-04T13:02:23.730Z,1.00
2023-04-04T13:04:57.894Z,1.17
2023-04-04T13:07:30.925Z,1.13
2023-04-04T13:10:00.591Z,1.10
2023-04-04T13:12:27.361Z,1.10
2023-04-04T13:15:01.272Z,1.48
2023-04-04T13:17:45.132Z,0.85
2023-04-04T13:20:13.429Z,1.20
2023-04-04T13:22:41.447Z,1.00
2023-04-04T13:25:10.203Z,1.40
2023-04-04T13:27:37.887Z,1.00
2023-04-04T13:30:06.845Z,1.17
2023-04-04T13:32:34.458Z,1.02
2023-04-04T13:35:01.349Z,1.30
2023-04-04T13:37:28.368Z,0.90
2023-04-04T13:39:55.177Z,0.98
2023-04-04T13:42:23.988Z,1.40
2023-04-04T13:44:51.052Z,1.05
2023-04-04T13:47:17.838Z,1.25
2023-04-04T13:49:44.649Z,1.60
2023-04-04T13:52:11.669Z,1.35
2023-04-04T13:54:38.545Z,2.22
2023-04-04T13:57:05.482Z,1.05
2023-04-04T13:59:32.545Z,1.17
2023-04-04T14:01:59.593Z,1.58
2023-04-04T14:04:26.634Z,1.05
2023-04-04T14:06:53.574Z,2.15
2023-04-04T14:09:20.437Z,1.08
2023-04-04T14:11:47.443Z,1.17
2023-04-04T14:14:14.235Z,1.00
2023-04-04T14:16:41.190Z,1.33
2023-04-04T14:19:08.017Z,1.10
2023-04-04T14:21:35.599Z,1.10
2023-04-04T14:24:03.413Z,0.93
2023-04-04T14:26:30.756Z,1.08
2023-04-04T14:28:58.116Z,1.00
2023-04-04T14:31:25.291Z,1.10
2023-04-04T14:33:52.120Z,0.98
2023-04-04T14:36:21.690Z,1.42
2023-04-04T14:38:48.662Z,1.55
2023-04-04T14:41:16.881Z,1.25
2023-04-04T14:43:44.947Z,1.35
2023-04-04T14:46:11.916Z,1.40
2023-04-04T14:48:38.846Z,1.00
2023-04-04T14:51:06.040Z,1.17
2023-04-04T14:53:32.946Z,1.02
2023-04-04T14:55:59.729Z,1.55
2023-04-04T14:58:26.549Z,1.23
2023-04-04T15:00:53.413Z,1.10
2023-04-04T15:03:20.270Z,0.95
2023-04-04T15:05:48.648Z,1.00
2023-04-04T15:08:15.558Z,1.20
2023-04-04T15:10:42.544Z,1.20
2023-04-04T15:13:11.143Z,1.10
2023-04-04T15:15:38.037Z,1.00
2023-04-04T15:18:05.104Z,0.88
2023-04-04T15:20:32.034Z,0.90
2023-04-04T15:22:58.933Z,1.00
2023-04-04T15:25:25.759Z,1.25
2023-04-04T15:27:52.533Z,1.00
2023-04-04T15:30:19.569Z,1.00
2023-04-04T15:32:46.515Z,1.10
2023-04-04T15:35:19.977Z,1.23
2023-04-04T15:37:49.014Z,0.90
2023-04-04T15:40:16.969Z,1.15
2023-04-04T15:42:44.468Z,1.27
2023-04-04T15:45:12.692Z,1.20
2023-04-04T15:47:39.834Z,0.90
2023-04-04T15:50:09.031Z,1.30
2023-04-04T15:52:36.075Z,1.10
2023-04-04T15:55:04.109Z,1.10
2023-04-04T15:57:31.972Z,1.20
2023-04-04T15:59:58.780Z,1.10
2023-04-04T16:02:25.779Z,0.85
2023-04-04T16:04:52.655Z,1.00
2023-04-04T16:07:19.466Z,0.98
2023-04-04T16:09:46.336Z,1.05
2023-04-04T16:12:13.139Z,0.80
2023-04-04T16:14:39.925Z,0.95
2023-04-04T16:17:06.743Z,0.90
2023-04-04T16:19:34.262Z,1.17
2023-04-04T16:22:01.206Z,0.80
2023-04-04T16:24:28.180Z,0.82
2023-04-04T16:26:54.975Z,1.00
2023-04-04T16:29:21.818Z,1.23
2023-04-04T16:31:48.849Z,1.10
2023-04-04T16:34:15.653Z,1.33
2023-04-04T16:36:42.498Z,0.80
2023-04-04T16:39:09.494Z,1.38
2023-04-04T16:41:40.745Z,1.60
2023-04-04T16:44:07.616Z,1.35
2023-04-04T16:46:34.522Z,1.35
2023-04-04T16:49:01.323Z,1.45
2023-04-04T16:51:28.681Z,1.45
2023-04-04T16:53:56.287Z,1.17
2023-04-04T16:56:23.978Z,1.17
2023-04-04T16:58:51.107Z,1.48
2023-04-04T17:01:22.547Z,1.55
2023-04-04T17:03:49.672Z,1.20
2023-04-04T17:06:16.556Z,1.38
2023-04-04T17:08:45.149Z,1.23
2023-04-04T17:11:13.197Z,1.17
2023-04-04T17:13:40.182Z,1.60
2023-04-04T17:16:08.279Z,1.70
2023-04-04T17:18:35.422Z,1.40
2023-04-04T17:21:02.376Z,2.00
2023-04-04T17:23:29.227Z,1.50
2023-04-04T17:25:56.288Z,1.58
2023-04-04T17:28:23.166Z,1.50
2023-04-04T17:30:50.773Z,2.80
2023-04-04T17:33:17.683Z,2.50
2023-04-04T17:35:48.104Z,2.00
2023-04-04T17:38:14.970Z,4.00
2023-04-04T17:40:42.032Z,2.90
2023-04-04T17:43:09.021Z,2.67
2023-04-04T17:45:36.175Z,2.67
2023-04-04T17:48:03.097Z,3.20
2023-04-04T17:50:29.963Z,11.73
2023-04-04T17:52:56.758Z,11.60
2023-04-04T17:55:23.887Z,2.72
2023-04-04T17:57:50.734Z,1.90
2023-04-04T18:00:17.824Z,1.67
2023-04-04T18:02:44.726Z,1.42
2023-04-04T18:05:13.327Z,1.95
2023-04-04T18:07:40.876Z,2.88
2023-04-04T18:10:08.418Z,1.75
2023-04-04T18:12:36.411Z,1.70
2023-04-04T18:15:04.129Z,1.90
2023-04-04T18:17:32.383Z,1.73
2023-04-04T18:20:00.961Z,1.60
2023-04-04T18:22:28.246Z,2.25
2023-04-04T18:24:55.050Z,2.80
2023-04-04T18:27:21.918Z,2.35
2023-04-04T18:29:48.743Z,2.33
2023-04-04T18:32:15.859Z,2.45
2023-04-04T18:34:42.695Z,2.13
2023-04-04T18:37:09.514Z,2.10
2023-04-04T18:39:36.596Z,2.50
2023-04-04T18:42:03.572Z,2.10
2023-04-04T18:44:32.557Z,2.10
2023-04-04T18:47:04.222Z,2.35
2023-04-04T18:49:31.606Z,2.87
2023-04-04T18:51:58.510Z,2.50
2023-04-04T18:54:27.185Z,3.38
2023-04-04T18:56:54.771Z,4.28
2023-04-04T18:59:22.601Z,4.85
2023-04-04T19:01:50.686Z,3.88
2023-04-04T19:04:20.581Z,5.40
2023-04-04T19:06:52.899Z,6.80
2023-04-04T19:09:20.719Z,7.10
2023-04-04T19:11:48.649Z,7.18
2023-04-04T19:14:15.905Z,6.72
2023-04-04T19:16:42.793Z,5.97
2023-04-04T19:19:09.628Z,6.18
2023-04-04T19:21:36.451Z,7.05
2023-04-04T19:24:03.683Z,6.22
2023-04-04T19:26:31.476Z,7.25
2023-04-04T19:28:59.219Z,7.60
2023-04-04T19:31:30.136Z,8.50
2023-04-04T19:33:57.489Z,8.50
2023-04-04T19:36:24.811Z,7.38
2023-04-04T19:38:54.711Z,8.10
2023-04-04T19:41:32.583Z,10.65
2023-04-04T19:43:59.633Z,10.43
2023-04-04T19:46:28.520Z,9.57
2023-04-04T19:48:57.262Z,9.05
2023-04-04T19:51:23.988Z,7.68
2023-04-04T19:53:53.586Z,6.10
2023-04-04T19:56:22.099Z,6.00
2023-04-04T19:59:00.391Z,6.28
2023-04-04T20:01:29.625Z,6.10
2023-04-04T20:03:57.691Z,6.35
2023-04-04T20:06:29.694Z,6.68
2023-04-04T20:08:58.752Z,6.30
2023-04-04T20:11:32.405Z,10.45
2023-04-04T20:14:01.544Z,8.07
2023-04-04T20:16:30.240Z,10.98
2023-04-04T20:18:59.625Z,10.13
2023-04-04T20:21:28.599Z,12.23
2023-04-04T20:23:57.864Z,11.48
2023-04-04T20:26:46.048Z,9.95
2023-04-04T20:29:15.382Z,8.60
2023-04-04T20:31:47.425Z,7.63
2023-04-04T20:34:41.990Z,7.18
2023-04-04T20:37:10.495Z,7.07
2023-04-04T20:40:03.197Z,8.57
2023-04-04T20:42:30.304Z,7.25
2023-04-04T20:45:17.621Z,6.85
2023-04-04T20:47:50.186Z,7.25
2023-04-04T20:52:49.033Z,6.78
2023-04-04T20:55:18.666Z,9.73
2023-04-04T20:57:50.373Z,9.88
2023-04-04T21:00:29.304Z,5.83
2023-04-04T21:02:58.659Z,5.60
2023-04-04T21:05:38.569Z,4.93
2023-04-04T21:08:31.453Z,6.90
2023-04-04T21:10:58.317Z,28.70
2023-04-04T21:13:40.356Z,22.13
2023-04-04T21:16:08.615Z,7.57
2023-04-04T21:18:36.323Z,6.85
2023-04-04T21:21:10.008Z,7.68
2023-04-04T21:23:39.780Z,6.65
2023-04-04T21:26:10.959Z,5.68
2023-04-04T21:28:41.795Z,5.28
2023-04-04T21:31:33.318Z,4.68
2023-04-04T21:34:08.109Z,3.88
2023-04-04T21:36:34.972Z,4.65
2023-04-04T21:39:05.902Z,4.32
2023-04-04T21:41:35.935Z,7.00
2023-04-04T21:44:05.279Z,6.95
2023-04-04T21:46:34.567Z,5.13
2023-04-04T21:49:01.814Z,5.38
2023-04-04T21:51:28.664Z,4.60
2023-04-04T21:53:56.437Z,4.20
2023-04-04T21:56:27.423Z,4.18
2023-04-04T21:58:55.143Z,4.55
2023-04-04T22:01:22.476Z,3.95
2023-04-04T22:03:49.399Z,3.85
2023-04-04T22:06:16.631Z,3.00
2023-04-04T22:08:43.589Z,2.72
2023-04-04T22:11:13.402Z,2.90
2023-04-04T22:13:42.942Z,3.20
2023-04-04T22:16:16.007Z,3.22
2023-04-04T22:18:46.945Z,4.47
2023-04-04T22:21:17.683Z,4.40
2023-04-04T22:23:44.812Z,4.80
2023-04-04T22:26:14.069Z,4.20
2023-04-04T22:28:42.303Z,3.90
2023-04-04T22:31:09.343Z,4.10
2023-04-04T22:33:36.211Z,4.13
2023-04-04T22:36:03.550Z,5.15
2023-04-04T22:38:30.518Z,4.80
2023-04-04T22:40:58.354Z,3.47
2023-04-04T22:43:28.698Z,3.03
2023-04-04T22:45:55.599Z,2.45
2023-04-04T22:48:25.277Z,2.88
2023-04-04T22:50:56.083Z,2.33
2023-04-04T22:53:26.374Z,2.65
2023-04-04T22:55:58.466Z,2.45
2023-04-04T22:58:25.443Z,3.10
2023-04-04T23:00:52.360Z,3.10
2023-04-04T23:03:19.197Z,3.03
2023-04-04T23:05:46.180Z,3.67
2023-04-04T23:08:13.012Z,3.83
2023-04-04T23:10:40.184Z,4.45
2023-04-04T23:13:07.281Z,3.33
2023-04-04T23:15:37.597Z,3.67
2023-04-04T23:18:04.780Z,4.05
2023-04-04T23:20:32.466Z,4.53
2023-04-04T23:22:59.662Z,4.35
2023-04-04T23:25:26.877Z,5.63
2023-04-04T23:27:54.265Z,4.15
2023-04-04T23:30:23.240Z,4.13
2023-04-04T23:32:50.595Z,4.55
2023-04-04T23:35:17.656Z,3.03
2023-04-04T23:37:44.536Z,2.67
2023-04-04T23:40:12.049Z,3.45
2023-04-04T23:42:38.972Z,2.83
2023-04-04T23:45:06.297Z,2.80
2023-04-04T23:47:33.344Z,3.08
2023-04-04T23:50:00.187Z,2.38
2023-04-04T23:52:27.193Z,2.85
2023-04-04T23:54:54.009Z,2.55
2023-04-04T23:57:21.174Z,2.60
2023-04-04T23:59:47.928Z,2.13
